Queen Victoria — ZCEF3 — position and weather

sailwx.info

Track history (hours):
 
Tides and Currents Weather Stations Pressure Air Temp Water Temp Dewpoint Dewpoint Depression Visibility Wind Speed Wind Dir Waves Ship Positions

Queen Victoria

Last reported at 2019-Nov-19 22:28 UTC. Time now 2019-Nov-20 09:14 UTC.
Position N 64°14' E 006°08'.

Length 294 m; draft 8 m.

Type: Ship. MMSI: 310624000.

Date/timePositionNaut miles runAvg speedWind from/ knotsBaromVisibWave heightAir tempDewpointWater temp
2019-Nov-19 22:28N 64°14' E 006°08'2919.7
2019-Nov-19 21:00N 63°45' E 005°60'4919.4
2019-Nov-19 18:30N 62°57' E 005°46'919.0
2019-Nov-19 18:00N 62°47' E 005°43'2214.4
2019-Nov-19 16:30N 62°27' E 005°60'5 2.3
2019-Nov-19 14:29N 62°28' E 006°09'0 0.0
2019-Nov-19 13:29N 62°28' E 006°09'0 0.0
2019-Nov-19 10:59N 62°28' E 006°09'0 0.0
2019-Nov-19 08:56N 62°28' E 006°09'0 0.0
2019-Nov-19 06:59N 62°28' E 006°09'13 5.4
2019-Nov-19 04:30N 62°30' E 005°41'3313.1
2019-Nov-19 02:00N 62°11' E 004°44'3213.0
2019-Nov-18 23:30N 61°41' E 004°18'1414.1
2019-Nov-18 22:29N 61°27' E 004°16'715.0
2019-Nov-18 22:00N 61°20' E 004°15'714.5
2019-Nov-18 21:30N 61°12' E 004°14'1514.9
2019-Nov-18 20:30N 60°58' E 004°11'814.8
2019-Nov-18 20:00N 60°50' E 004°10'917.4
2019-Nov-18 19:30N 60°41' E 004°10'6117.3
2019-Nov-18 16:00N 59°41' E 004°11'917.7
2019-Nov-18 15:30N 59°32' E 004°11'4317.2
2019-Nov-18 12:59N 58°49' E 004°10'816.7
2019-Nov-18 12:30N 58°41' E 004°08'2617.0
2019-Nov-18 11:00N 58°15' E 004°02'2617.4
2019-Nov-18 09:29N 57°49' E 003°55'30217.8
2019-Nov-17 16:32N 52°51' E 002°25'15216.3
2019-Nov-17 07:12N 50°30' E 000°51'5816.6
2019-Nov-17 03:43N 50°32' W 000°41'417.3
2019-Nov-17 03:30N 50°34' W 000°45'2713.4
2019-Nov-17 01:31N 50°50' W 001°19'6 1.6
2019-Nov-16 21:23N 50°54' W 001°26'0 0.0
2019-Nov-16 20:30N 50°54' W 001°26'0 0.0
2019-Nov-16 19:30N 50°54' W 001°26'0 0.0
2019-Nov-16 18:53N 50°54' W 001°26'0 0.0
2019-Nov-16 18:30N 50°54' W 001°26'0 0.0
2019-Nov-16 17:18N 50°54' W 001°26'0 0.0
2019-Nov-16 16:36N 50°54' W 001°26'0 0.0
2019-Nov-16 15:59N 50°54' W 001°26'0 0.0
2019-Nov-16 15:30N 50°54' W 001°26'0 0.0
2019-Nov-16 07:27N 50°54' W 001°26'0 0.1
2019-Nov-16 06:30N 50°54' W 001°26'25 8.4
2019-Nov-16 03:30N 50°35' W 000°60'4 8.1
2019-Nov-16 03:00N 50°31' W 001°02'4 8.3
2019-Nov-16 02:29N 50°30' W 001°08'73 9.7
2019-Nov-15 18:56N 49°51' W 002°45'1111.9
2019-Nov-15 17:58N 49°46' W 003°01'2811.2
2019-Nov-15 15:30N 49°32' W 003°38'6811.1
2019-Nov-15 09:25N 48°58' W 005°08'1010.4
2019-Nov-15 08:30N 48°53' W 005°20'27913.0
2019-Nov-14 11:00N 44°30' W 007°36'21117.6 330 / 47996.510.8 14.5 8.617.0
2019-Nov-13 23:00N 41°30' W 010°06'   310 / 421013.7 5.4 14.5 5.420.0
2019-Nov-11 10:29N 28°58' W 013°32'0 0.0
2019-Nov-11 08:41N 28°58' W 013°32'11 4.0
2019-Nov-11 06:00N 28°50' W 013°40'6 9.7
2019-Nov-11 05:26N 28°48' W 013°46'22 9.6
2019-Nov-11 03:10N 28°48' W 014°11'21 9.2
2019-Nov-11 00:54N 28°42' W 014°34'13 9.5
2019-Nov-10 23:30N 28°32' W 014°43'10 9.9
2019-Nov-10 22:30N 28°23' W 014°47'1510.3
2019-Nov-10 21:01N 28°09' W 014°54'2610.3
2019-Nov-10 18:30N 28°06' W 015°23'3 1.1
2019-Nov-10 15:58N 28°08' W 015°25'0 0.0
2019-Nov-10 08:58N 28°08' W 015°25'7 2.3
2019-Nov-10 06:00N 28°12' W 015°19'2211.1
2019-Nov-10 04:00N 28°32' W 015°28'5912.2
2019-Nov-09 23:13N 28°50' W 016°32'  
Track history (hours):
 
Tides and Currents Weather Stations Pressure Air Temp Water Temp Dewpoint Dewpoint Depression Visibility Wind Speed Wind Dir Waves Ship Positions

Queen Victoria

Last reported at 2019-Nov-19 22:28 UTC. Time now 2019-Nov-20 09:14 UTC.
Position N 64°14' E 006°08'.

Length 294 m; draft 8 m.

Type: Ship. MMSI: 310624000.

Date/timePositionNaut miles runAvg speedWind from/ knotsBaromVisibWave heightAir tempDewpointWater temp
2019-Nov-19 22:28N 64°14' E 006°08'2919.7
2019-Nov-19 21:00N 63°45' E 005°60'4919.4
2019-Nov-19 18:30N 62°57' E 005°46'919.0
2019-Nov-19 18:00N 62°47' E 005°43'2214.4
2019-Nov-19 16:30N 62°27' E 005°60'5 2.3
2019-Nov-19 14:29N 62°28' E 006°09'0 0.0
2019-Nov-19 13:29N 62°28' E 006°09'0 0.0
2019-Nov-19 10:59N 62°28' E 006°09'0 0.0
2019-Nov-19 08:56N 62°28' E 006°09'0 0.0
2019-Nov-19 06:59N 62°28' E 006°09'13 5.4
2019-Nov-19 04:30N 62°30' E 005°41'3313.1
2019-Nov-19 02:00N 62°11' E 004°44'3213.0
2019-Nov-18 23:30N 61°41' E 004°18'1414.1
2019-Nov-18 22:29N 61°27' E 004°16'715.0
2019-Nov-18 22:00N 61°20' E 004°15'714.5
2019-Nov-18 21:30N 61°12' E 004°14'1514.9
2019-Nov-18 20:30N 60°58' E 004°11'814.8
2019-Nov-18 20:00N 60°50' E 004°10'917.4
2019-Nov-18 19:30N 60°41' E 004°10'6117.3
2019-Nov-18 16:00N 59°41' E 004°11'917.7
2019-Nov-18 15:30N 59°32' E 004°11'4317.2
2019-Nov-18 12:59N 58°49' E 004°10'816.7
2019-Nov-18 12:30N 58°41' E 004°08'2617.0
2019-Nov-18 11:00N 58°15' E 004°02'2617.4
2019-Nov-18 09:29N 57°49' E 003°55'30217.8
2019-Nov-17 16:32N 52°51' E 002°25'15216.3
2019-Nov-17 07:12N 50°30' E 000°51'5816.6
2019-Nov-17 03:43N 50°32' W 000°41'417.3
2019-Nov-17 03:30N 50°34' W 000°45'2713.4
2019-Nov-17 01:31N 50°50' W 001°19'6 1.6
2019-Nov-16 21:23N 50°54' W 001°26'0 0.0
2019-Nov-16 20:30N 50°54' W 001°26'0 0.0
2019-Nov-16 19:30N 50°54' W 001°26'0 0.0
2019-Nov-16 18:53N 50°54' W 001°26'0 0.0
2019-Nov-16 18:30N 50°54' W 001°26'0 0.0
2019-Nov-16 17:18N 50°54' W 001°26'0 0.0
2019-Nov-16 16:36N 50°54' W 001°26'0 0.0
2019-Nov-16 15:59N 50°54' W 001°26'0 0.0
2019-Nov-16 15:30N 50°54' W 001°26'0 0.0
2019-Nov-16 07:27N 50°54' W 001°26'0 0.1
2019-Nov-16 06:30N 50°54' W 001°26'25 8.4
2019-Nov-16 03:30N 50°35' W 000°60'4 8.1
2019-Nov-16 03:00N 50°31' W 001°02'4 8.3
2019-Nov-16 02:29N 50°30' W 001°08'73 9.7
2019-Nov-15 18:56N 49°51' W 002°45'1111.9
2019-Nov-15 17:58N 49°46' W 003°01'2811.2
2019-Nov-15 15:30N 49°32' W 003°38'6811.1
2019-Nov-15 09:25N 48°58' W 005°08'1010.4
2019-Nov-15 08:30N 48°53' W 005°20'27913.0
2019-Nov-14 11:00N 44°30' W 007°36'21117.6 330 / 47996.510.8 14.5 8.617.0
2019-Nov-13 23:00N 41°30' W 010°06'   310 / 421013.7 5.4 14.5 5.420.0
2019-Nov-11 10:29N 28°58' W 013°32'0 0.0
2019-Nov-11 08:41N 28°58' W 013°32'11 4.0
2019-Nov-11 06:00N 28°50' W 013°40'6 9.7
2019-Nov-11 05:26N 28°48' W 013°46'22 9.6
2019-Nov-11 03:10N 28°48' W 014°11'21 9.2
2019-Nov-11 00:54N 28°42' W 014°34'13 9.5
2019-Nov-10 23:30N 28°32' W 014°43'10 9.9
2019-Nov-10 22:30N 28°23' W 014°47'1510.3
2019-Nov-10 21:01N 28°09' W 014°54'2610.3
2019-Nov-10 18:30N 28°06' W 015°23'3 1.1
2019-Nov-10 15:58N 28°08' W 015°25'0 0.0
2019-Nov-10 08:58N 28°08' W 015°25'7 2.3
2019-Nov-10 06:00N 28°12' W 015°19'2211.1
2019-Nov-10 04:00N 28°32' W 015°28'5912.2
2019-Nov-09 23:13N 28°50' W 016°32'  

Dump ship's entire track history